sensor_id;sensor_type;location;lat;lon;timestamp;P1;durP1;ratioP1;P2;durP2;ratioP2
69463;SDS011;56665;41.106;16.688;2023-04-06T00:01:34;17.38;;;9.57;;
69463;SDS011;56665;41.106;16.688;2023-04-06T00:04:38;16.25;;;9.13;;
69463;SDS011;56665;41.106;16.688;2023-04-06T00:07:43;16.35;;;8.30;;
69463;SDS011;56665;41.106;16.688;2023-04-06T00:10:47;14.93;;;8.77;;
69463;SDS011;56665;41.106;16.688;2023-04-06T00:13:52;17.00;;;8.80;;
69463;SDS011;56665;41.106;16.688;2023-04-06T00:16:56;14.95;;;8.40;;
69463;SDS011;56665;41.106;16.688;2023-04-06T00:20:00;15.30;;;8.98;;
69463;SDS011;56665;41.106;16.688;2023-04-06T00:23:06;14.50;;;8.55;;
69463;SDS011;56665;41.106;16.688;2023-04-06T00:26:11;15.13;;;8.33;;
69463;SDS011;56665;41.106;16.688;2023-04-06T00:29:20;14.38;;;8.60;;
69463;SDS011;56665;41.106;16.688;2023-04-06T00:32:23;14.93;;;8.25;;
69463;SDS011;56665;41.106;16.688;2023-04-06T00:35:27;14.85;;;8.40;;
69463;SDS011;56665;41.106;16.688;2023-04-06T00:38:31;13.60;;;7.95;;
69463;SDS011;56665;41.106;16.688;2023-04-06T00:41:36;13.47;;;8.10;;
69463;SDS011;56665;41.106;16.688;2023-04-06T00:44:40;12.68;;;8.02;;
69463;SDS011;56665;41.106;16.688;2023-04-06T00:47:45;15.63;;;8.32;;
69463;SDS011;56665;41.106;16.688;2023-04-06T00:50:49;14.32;;;7.40;;
69463;SDS011;56665;41.106;16.688;2023-04-06T00:53:54;13.75;;;7.38;;
69463;SDS011;56665;41.106;16.688;2023-04-06T00:56:59;13.47;;;7.63;;
69463;SDS011;56665;41.106;16.688;2023-04-06T01:00:06;12.20;;;7.75;;
69463;SDS011;56665;41.106;16.688;2023-04-06T01:03:12;12.68;;;7.53;;
69463;SDS011;56665;41.106;16.688;2023-04-06T01:06:19;12.88;;;7.43;;
69463;SDS011;56665;41.106;16.688;2023-04-06T01:09:33;13.95;;;7.55;;
69463;SDS011;56665;41.106;16.688;2023-04-06T01:12:43;12.30;;;7.80;;
69463;SDS011;56665;41.106;16.688;2023-04-06T01:15:55;13.48;;;7.38;;
69463;SDS011;56665;41.106;16.688;2023-04-06T01:19:09;11.98;;;7.45;;
69463;SDS011;56665;41.106;16.688;2023-04-06T01:22:20;12.18;;;7.15;;
69463;SDS011;56665;41.106;16.688;2023-04-06T01:25:32;13.30;;;7.60;;
69463;SDS011;56665;41.106;16.688;2023-04-06T01:28:42;11.07;;;6.73;;
69463;SDS011;56665;41.106;16.688;2023-04-06T01:32:07;12.85;;;7.57;;
69463;SDS011;56665;41.106;16.688;2023-04-06T01:35:18;10.60;;;6.75;;
69463;SDS011;56665;41.106;16.688;2023-04-06T01:38:33;12.18;;;6.78;;
69463;SDS011;56665;41.106;16.688;2023-04-06T01:41:39;10.85;;;6.75;;
69463;SDS011;56665;41.106;16.688;2023-04-06T01:44:43;11.60;;;6.70;;
69463;SDS011;56665;41.106;16.688;2023-04-06T01:47:52;11.32;;;7.05;;
69463;SDS011;56665;41.106;16.688;2023-04-06T01:50:59;11.30;;;6.78;;
69463;SDS011;56665;41.106;16.688;2023-04-06T01:54:08;12.93;;;7.30;;
69463;SDS011;56665;41.106;16.688;2023-04-06T01:57:31;11.52;;;7.25;;
69463;SDS011;56665;41.106;16.688;2023-04-06T02:00:47;12.70;;;7.00;;
69463;SDS011;56665;41.106;16.688;2023-04-06T02:03:52;10.25;;;6.60;;
69463;SDS011;56665;41.106;16.688;2023-04-06T02:06:56;11.70;;;6.70;;
69463;SDS011;56665;41.106;16.688;2023-04-06T02:10:03;12.20;;;6.60;;
69463;SDS011;56665;41.106;16.688;2023-04-06T02:13:14;10.50;;;6.65;;
69463;SDS011;56665;41.106;16.688;2023-04-06T02:16:23;10.60;;;6.30;;
69463;SDS011;56665;41.106;16.688;2023-04-06T02:19:27;11.68;;;6.30;;
69463;SDS011;56665;41.106;16.688;2023-04-06T02:22:31;10.15;;;5.85;;
69463;SDS011;56665;41.106;16.688;2023-04-06T02:25:36;8.80;;;5.97;;
69463;SDS011;56665;41.106;16.688;2023-04-06T02:28:41;10.25;;;6.20;;
69463;SDS011;56665;41.106;16.688;2023-04-06T02:31:45;11.63;;;6.10;;
69463;SDS011;56665;41.106;16.688;2023-04-06T02:34:49;9.68;;;5.60;;
69463;SDS011;56665;41.106;16.688;2023-04-06T02:37:56;11.20;;;7.03;;
69463;SDS011;56665;41.106;16.688;2023-04-06T02:41:00;11.63;;;6.40;;
69463;SDS011;56665;41.106;16.688;2023-04-06T02:44:06;9.20;;;5.80;;
69463;SDS011;56665;41.106;16.688;2023-04-06T02:47:17;10.73;;;5.97;;
69463;SDS011;56665;41.106;16.688;2023-04-06T02:50:25;10.32;;;6.10;;
69463;SDS011;56665;41.106;16.688;2023-04-06T02:53:37;10.98;;;6.05;;
69463;SDS011;56665;41.106;16.688;2023-04-06T02:56:41;9.25;;;5.97;;
69463;SDS011;56665;41.106;16.688;2023-04-06T02:59:49;10.00;;;6.50;;
69463;SDS011;56665;41.106;16.688;2023-04-06T03:03:02;10.83;;;5.80;;
69463;SDS011;56665;41.106;16.688;2023-04-06T03:06:06;10.68;;;6.18;;
69463;SDS011;56665;41.106;16.688;2023-04-06T03:09:10;10.93;;;6.18;;
69463;SDS011;56665;41.106;16.688;2023-04-06T03:12:19;8.88;;;5.72;;
69463;SDS011;56665;41.106;16.688;2023-04-06T03:15:56;9.55;;;5.82;;
69463;SDS011;56665;41.106;16.688;2023-04-06T03:19:04;8.77;;;5.77;;
69463;SDS011;56665;41.106;16.688;2023-04-06T03:22:11;10.38;;;5.97;;
69463;SDS011;56665;41.106;16.688;2023-04-06T03:25:17;9.73;;;5.97;;
69463;SDS011;56665;41.106;16.688;2023-04-06T03:28:22;10.30;;;6.32;;
69463;SDS011;56665;41.106;16.688;2023-04-06T03:31:38;10.13;;;6.22;;
69463;SDS011;56665;41.106;16.688;2023-04-06T03:34:46;10.67;;;6.17;;
69463;SDS011;56665;41.106;16.688;2023-04-06T03:37:50;10.32;;;6.20;;
69463;SDS011;56665;41.106;16.688;2023-04-06T03:40:54;8.82;;;5.60;;
69463;SDS011;56665;41.106;16.688;2023-04-06T03:44:02;11.45;;;6.05;;
69463;SDS011;56665;41.106;16.688;2023-04-06T03:47:06;11.25;;;6.53;;
69463;SDS011;56665;41.106;16.688;2023-04-06T03:50:10;10.33;;;6.30;;
69463;SDS011;56665;41.106;16.688;2023-04-06T03:53:14;9.52;;;5.97;;
69463;SDS011;56665;41.106;16.688;2023-04-06T03:56:19;11.13;;;6.57;;
69463;SDS011;56665;41.106;16.688;2023-04-06T03:59:26;9.82;;;5.88;;
69463;SDS011;56665;41.106;16.688;2023-04-06T04:02:30;10.75;;;6.10;;
69463;SDS011;56665;41.106;16.688;2023-04-06T04:05:35;10.37;;;5.93;;
69463;SDS011;56665;41.106;16.688;2023-04-06T04:08:39;9.55;;;6.30;;
69463;SDS011;56665;41.106;16.688;2023-04-06T04:11:44;11.18;;;6.72;;
69463;SDS011;56665;41.106;16.688;2023-04-06T04:14:48;11.80;;;6.35;;
69463;SDS011;56665;41.106;16.688;2023-04-06T04:17:51;16.00;;;6.43;;
69463;SDS011;56665;41.106;16.688;2023-04-06T04:20:58;10.97;;;5.80;;
69463;SDS011;56665;41.106;16.688;2023-04-06T04:24:01;10.90;;;6.05;;
69463;SDS011;56665;41.106;16.688;2023-04-06T04:27:06;9.82;;;5.78;;
69463;SDS011;56665;41.106;16.688;2023-04-06T04:30:12;11.77;;;5.88;;
69463;SDS011;56665;41.106;16.688;2023-04-06T04:33:15;11.60;;;6.00;;
69463;SDS011;56665;41.106;16.688;2023-04-06T04:36:21;8.33;;;5.67;;
69463;SDS011;56665;41.106;16.688;2023-04-06T04:39:26;10.10;;;6.03;;
69463;SDS011;56665;41.106;16.688;2023-04-06T04:42:38;12.52;;;6.57;;
69463;SDS011;56665;41.106;16.688;2023-04-06T04:45:45;12.55;;;5.75;;
69463;SDS011;56665;41.106;16.688;2023-04-06T04:49:05;11.02;;;6.50;;
69463;SDS011;56665;41.106;16.688;2023-04-06T04:52:09;12.30;;;7.10;;
69463;SDS011;56665;41.106;16.688;2023-04-06T04:55:35;12.98;;;7.35;;
69463;SDS011;56665;41.106;16.688;2023-04-06T04:58:41;11.13;;;6.28;;
69463;SDS011;56665;41.106;16.688;2023-04-06T05:01:45;10.80;;;6.45;;
69463;SDS011;56665;41.106;16.688;2023-04-06T05:04:48;11.85;;;6.80;;
69463;SDS011;56665;41.106;16.688;2023-04-06T05:07:57;14.30;;;6.87;;
69463;SDS011;56665;41.106;16.688;2023-04-06T05:11:21;12.25;;;6.57;;
69463;SDS011;56665;41.106;16.688;2023-04-06T05:14:32;12.02;;;6.53;;
69463;SDS011;56665;41.106;16.688;2023-04-06T05:17:39;14.75;;;7.30;;
69463;SDS011;56665;41.106;16.688;2023-04-06T05:20:46;12.23;;;7.55;;
69463;SDS011;56665;41.106;16.688;2023-04-06T05:23:51;14.07;;;8.10;;
69463;SDS011;56665;41.106;16.688;2023-04-06T05:26:59;14.07;;;6.97;;
69463;SDS011;56665;41.106;16.688;2023-04-06T05:30:04;11.23;;;6.78;;
69463;SDS011;56665;41.106;16.688;2023-04-06T05:33:15;12.48;;;6.63;;
69463;SDS011;56665;41.106;16.688;2023-04-06T05:36:48;12.02;;;7.38;;
69463;SDS011;56665;41.106;16.688;2023-04-06T05:39:55;13.80;;;7.60;;
69463;SDS011;56665;41.106;16.688;2023-04-06T05:43:00;17.60;;;8.25;;
69463;SDS011;56665;41.106;16.688;2023-04-06T05:46:04;16.45;;;8.38;;
69463;SDS011;56665;41.106;16.688;2023-04-06T05:49:09;16.70;;;9.82;;
69463;SDS011;56665;41.106;16.688;2023-04-06T05:52:13;15.15;;;8.27;;
69463;SDS011;56665;41.106;16.688;2023-04-06T05:55:22;13.50;;;8.00;;
69463;SDS011;56665;41.106;16.688;2023-04-06T05:58:37;12.35;;;7.85;;
69463;SDS011;56665;41.106;16.688;2023-04-06T06:01:43;14.10;;;8.05;;
69463;SDS011;56665;41.106;16.688;2023-04-06T06:04:47;16.90;;;7.85;;
69463;SDS011;56665;41.106;16.688;2023-04-06T06:07:52;18.02;;;8.93;;
69463;SDS011;56665;41.106;16.688;2023-04-06T06:10:57;12.67;;;8.00;;
69463;SDS011;56665;41.106;16.688;2023-04-06T06:14:03;16.15;;;8.70;;
69463;SDS011;56665;41.106;16.688;2023-04-06T06:17:12;14.90;;;8.23;;
69463;SDS011;56665;41.106;16.688;2023-04-06T06:20:18;15.65;;;7.55;;
69463;SDS011;56665;41.106;16.688;2023-04-06T06:23:25;15.02;;;8.48;;
69463;SDS011;56665;41.106;16.688;2023-04-06T06:26:29;13.93;;;8.03;;
69463;SDS011;56665;41.106;16.688;2023-04-06T06:29:37;14.68;;;8.13;;
69463;SDS011;56665;41.106;16.688;2023-04-06T06:32:42;14.00;;;7.93;;
69463;SDS011;56665;41.106;16.688;2023-04-06T06:35:45;14.68;;;8.68;;
69463;SDS011;56665;41.106;16.688;2023-04-06T06:38:49;16.05;;;8.70;;
69463;SDS011;56665;41.106;16.688;2023-04-06T06:41:56;14.17;;;8.17;;
69463;SDS011;56665;41.106;16.688;2023-04-06T06:45:21;15.45;;;8.32;;
69463;SDS011;56665;41.106;16.688;2023-04-06T06:48:25;14.13;;;7.88;;
69463;SDS011;56665;41.106;16.688;2023-04-06T06:51:29;14.30;;;7.93;;
69463;SDS011;56665;41.106;16.688;2023-04-06T06:54:34;16.00;;;8.82;;
69463;SDS011;56665;41.106;16.688;2023-04-06T06:57:38;16.47;;;8.83;;
69463;SDS011;56665;41.106;16.688;2023-04-06T07:00:42;17.95;;;9.63;;
69463;SDS011;56665;41.106;16.688;2023-04-06T07:03:46;15.77;;;9.80;;
69463;SDS011;56665;41.106;16.688;2023-04-06T07:06:51;17.10;;;9.55;;
69463;SDS011;56665;41.106;16.688;2023-04-06T07:09:56;16.02;;;9.27;;
69463;SDS011;56665;41.106;16.688;2023-04-06T07:13:00;17.10;;;10.03;;
69463;SDS011;56665;41.106;16.688;2023-04-06T07:16:07;15.88;;;9.15;;
69463;SDS011;56665;41.106;16.688;2023-04-06T07:19:11;14.88;;;8.15;;
69463;SDS011;56665;41.106;16.688;2023-04-06T07:22:16;13.27;;;7.20;;
69463;SDS011;56665;41.106;16.688;2023-04-06T07:25:20;10.27;;;6.72;;
69463;SDS011;56665;41.106;16.688;2023-04-06T07:28:24;11.03;;;6.20;;
69463;SDS011;56665;41.106;16.688;2023-04-06T07:31:27;10.38;;;6.57;;
69463;SDS011;56665;41.106;16.688;2023-04-06T07:34:31;10.50;;;7.05;;
69463;SDS011;56665;41.106;16.688;2023-04-06T07:37:36;10.93;;;6.43;;
69463;SDS011;56665;41.106;16.688;2023-04-06T07:40:40;10.98;;;6.60;;
69463;SDS011;56665;41.106;16.688;2023-04-06T07:43:44;11.20;;;6.57;;
69463;SDS011;56665;41.106;16.688;2023-04-06T07:46:48;11.25;;;6.55;;
69463;SDS011;56665;41.106;16.688;2023-04-06T07:49:55;9.85;;;5.82;;
69463;SDS011;56665;41.106;16.688;2023-04-06T07:53:00;11.43;;;5.38;;
69463;SDS011;56665;41.106;16.688;2023-04-06T07:56:05;9.80;;;5.20;;
69463;SDS011;56665;41.106;16.688;2023-04-06T07:59:09;12.03;;;5.70;;
69463;SDS011;56665;41.106;16.688;2023-04-06T08:02:14;9.30;;;6.32;;
69463;SDS011;56665;41.106;16.688;2023-04-06T08:05:18;10.80;;;6.28;;
69463;SDS011;56665;41.106;16.688;2023-04-06T08:08:23;9.45;;;5.90;;
69463;SDS011;56665;41.106;16.688;2023-04-06T08:11:28;8.98;;;6.15;;
69463;SDS011;56665;41.106;16.688;2023-04-06T08:14:31;8.57;;;4.90;;
69463;SDS011;56665;41.106;16.688;2023-04-06T08:17:35;8.43;;;4.90;;
69463;SDS011;56665;41.106;16.688;2023-04-06T08:20:40;6.95;;;5.18;;
69463;SDS011;56665;41.106;16.688;2023-04-06T08:23:44;11.20;;;6.07;;
69463;SDS011;56665;41.106;16.688;2023-04-06T08:26:49;8.30;;;5.70;;
69463;SDS011;56665;41.106;16.688;2023-04-06T08:29:54;9.10;;;5.30;;
69463;SDS011;56665;41.106;16.688;2023-04-06T08:33:02;9.73;;;5.10;;
69463;SDS011;56665;41.106;16.688;2023-04-06T08:36:10;10.13;;;4.93;;
69463;SDS011;56665;41.106;16.688;2023-04-06T08:39:15;10.48;;;5.85;;
69463;SDS011;56665;41.106;16.688;2023-04-06T08:42:22;9.70;;;5.57;;
69463;SDS011;56665;41.106;16.688;2023-04-06T08:45:29;8.03;;;4.37;;
69463;SDS011;56665;41.106;16.688;2023-04-06T08:48:33;7.15;;;4.65;;
69463;SDS011;56665;41.106;16.688;2023-04-06T08:51:39;6.75;;;4.80;;
69463;SDS011;56665;41.106;16.688;2023-04-06T08:54:44;8.25;;;4.90;;
69463;SDS011;56665;41.106;16.688;2023-04-06T08:57:47;9.02;;;5.20;;
69463;SDS011;56665;41.106;16.688;2023-04-06T09:00:52;7.40;;;4.87;;
69463;SDS011;56665;41.106;16.688;2023-04-06T09:03:57;8.50;;;4.75;;
69463;SDS011;56665;41.106;16.688;2023-04-06T09:07:03;7.63;;;4.82;;
69463;SDS011;56665;41.106;16.688;2023-04-06T09:10:07;9.43;;;5.65;;
69463;SDS011;56665;41.106;16.688;2023-04-06T09:13:12;10.23;;;5.95;;
69463;SDS011;56665;41.106;16.688;2023-04-06T09:16:15;9.27;;;6.07;;
69463;SDS011;56665;41.106;16.688;2023-04-06T09:19:19;12.48;;;5.38;;
69463;SDS011;56665;41.106;16.688;2023-04-06T09:22:23;8.38;;;5.07;;
69463;SDS011;56665;41.106;16.688;2023-04-06T09:25:33;8.27;;;5.28;;
69463;SDS011;56665;41.106;16.688;2023-04-06T09:28:49;9.90;;;5.28;;
69463;SDS011;56665;41.106;16.688;2023-04-06T09:32:07;8.10;;;5.57;;
69463;SDS011;56665;41.106;16.688;2023-04-06T09:35:13;10.60;;;6.43;;
69463;SDS011;56665;41.106;16.688;2023-04-06T09:38:17;10.45;;;5.78;;
69463;SDS011;56665;41.106;16.688;2023-04-06T09:41:25;8.77;;;5.47;;
69463;SDS011;56665;41.106;16.688;2023-04-06T09:44:29;12.48;;;6.03;;
69463;SDS011;56665;41.106;16.688;2023-04-06T09:47:35;11.03;;;6.27;;
69463;SDS011;56665;41.106;16.688;2023-04-06T09:50:40;8.60;;;4.75;;
69463;SDS011;56665;41.106;16.688;2023-04-06T09:53:44;9.48;;;5.00;;
69463;SDS011;56665;41.106;16.688;2023-04-06T09:56:55;9.07;;;5.00;;
69463;SDS011;56665;41.106;16.688;2023-04-06T10:03:18;9.60;;;4.90;;
69463;SDS011;56665;41.106;16.688;2023-04-06T10:06:23;7.55;;;4.97;;
69463;SDS011;56665;41.106;16.688;2023-04-06T10:09:30;9.82;;;6.30;;
69463;SDS011;56665;41.106;16.688;2023-04-06T10:12:39;14.50;;;7.18;;
69463;SDS011;56665;41.106;16.688;2023-04-06T10:15:43;11.55;;;6.10;;
69463;SDS011;56665;41.106;16.688;2023-04-06T10:18:50;9.20;;;5.00;;
69463;SDS011;56665;41.106;16.688;2023-04-06T10:21:58;8.60;;;5.00;;
69463;SDS011;56665;41.106;16.688;2023-04-06T10:25:03;9.73;;;5.40;;
69463;SDS011;56665;41.106;16.688;2023-04-06T10:28:08;8.57;;;4.65;;
69463;SDS011;56665;41.106;16.688;2023-04-06T10:31:12;7.50;;;4.13;;
69463;SDS011;56665;41.106;16.688;2023-04-06T10:34:16;7.57;;;4.73;;
69463;SDS011;56665;41.106;16.688;2023-04-06T10:37:20;9.48;;;4.85;;
69463;SDS011;56665;41.106;16.688;2023-04-06T10:40:24;7.28;;;4.55;;
69463;SDS011;56665;41.106;16.688;2023-04-06T10:43:32;8.77;;;5.15;;
69463;SDS011;56665;41.106;16.688;2023-04-06T10:46:36;6.78;;;4.97;;
69463;SDS011;56665;41.106;16.688;2023-04-06T10:49:40;8.27;;;4.97;;
69463;SDS011;56665;41.106;16.688;2023-04-06T10:52:47;8.27;;;5.22;;
69463;SDS011;56665;41.106;16.688;2023-04-06T10:56:03;9.02;;;5.60;;
69463;SDS011;56665;41.106;16.688;2023-04-06T10:59:14;9.80;;;5.63;;
69463;SDS011;56665;41.106;16.688;2023-04-06T11:02:22;8.68;;;5.60;;
69463;SDS011;56665;41.106;16.688;2023-04-06T11:05:26;10.73;;;5.70;;
69463;SDS011;56665;41.106;16.688;2023-04-06T11:08:33;9.45;;;5.60;;
69463;SDS011;56665;41.106;16.688;2023-04-06T11:11:38;11.00;;;5.97;;
69463;SDS011;56665;41.106;16.688;2023-04-06T11:14:52;9.60;;;6.10;;
69463;SDS011;56665;41.106;16.688;2023-04-06T11:18:04;10.25;;;5.88;;
69463;SDS011;56665;41.106;16.688;2023-04-06T11:21:08;11.20;;;6.53;;
69463;SDS011;56665;41.106;16.688;2023-04-06T11:27:26;11.45;;;5.88;;
69463;SDS011;56665;41.106;16.688;2023-04-06T11:30:34;8.93;;;5.60;;
69463;SDS011;56665;41.106;16.688;2023-04-06T11:33:39;10.77;;;5.50;;
69463;SDS011;56665;41.106;16.688;2023-04-06T11:36:43;7.37;;;5.17;;
69463;SDS011;56665;41.106;16.688;2023-04-06T11:39:48;10.15;;;5.30;;
69463;SDS011;56665;41.106;16.688;2023-04-06T11:42:54;11.02;;;5.13;;
69463;SDS011;56665;41.106;16.688;2023-04-06T11:46:03;11.23;;;5.18;;
69463;SDS011;56665;41.106;16.688;2023-04-06T11:49:08;8.35;;;5.50;;
69463;SDS011;56665;41.106;16.688;2023-04-06T11:52:16;10.77;;;4.87;;
69463;SDS011;56665;41.106;16.688;2023-04-06T11:55:25;14.80;;;5.38;;
69463;SDS011;56665;41.106;16.688;2023-04-06T11:58:29;11.07;;;5.40;;
69463;SDS011;56665;41.106;16.688;2023-04-06T12:01:33;8.43;;;4.35;;
69463;SDS011;56665;41.106;16.688;2023-04-06T12:04:37;7.38;;;4.32;;
69463;SDS011;56665;41.106;16.688;2023-04-06T12:07:41;7.30;;;4.57;;
69463;SDS011;56665;41.106;16.688;2023-04-06T12:10:45;8.52;;;5.65;;
69463;SDS011;56665;41.106;16.688;2023-04-06T12:13:49;11.60;;;5.25;;
69463;SDS011;56665;41.106;16.688;2023-04-06T12:16:52;9.60;;;5.25;;
69463;SDS011;56665;41.106;16.688;2023-04-06T12:19:57;8.00;;;4.53;;
69463;SDS011;56665;41.106;16.688;2023-04-06T12:23:01;9.13;;;5.07;;
69463;SDS011;56665;41.106;16.688;2023-04-06T12:26:05;9.85;;;5.30;;
69463;SDS011;56665;41.106;16.688;2023-04-06T12:29:09;9.15;;;4.40;;
69463;SDS011;56665;41.106;16.688;2023-04-06T12:32:12;7.18;;;4.22;;
69463;SDS011;56665;41.106;16.688;2023-04-06T12:35:16;8.20;;;4.60;;
69463;SDS011;56665;41.106;16.688;2023-04-06T12:38:20;8.53;;;4.80;;
69463;SDS011;56665;41.106;16.688;2023-04-06T12:41:24;7.32;;;4.43;;
69463;SDS011;56665;41.106;16.688;2023-04-06T12:44:29;7.32;;;4.03;;
69463;SDS011;56665;41.106;16.688;2023-04-06T12:47:33;7.53;;;3.67;;
69463;SDS011;56665;41.106;16.688;2023-04-06T12:50:39;8.43;;;3.90;;
69463;SDS011;56665;41.106;16.688;2023-04-06T12:53:43;11.17;;;3.50;;
69463;SDS011;56665;41.106;16.688;2023-04-06T12:56:47;7.13;;;3.35;;
69463;SDS011;56665;41.106;16.688;2023-04-06T12:59:50;6.95;;;3.42;;
69463;SDS011;56665;41.106;16.688;2023-04-06T13:02:54;6.47;;;3.00;;
69463;SDS011;56665;41.106;16.688;2023-04-06T13:05:59;6.90;;;2.72;;
69463;SDS011;56665;41.106;16.688;2023-04-06T13:09:03;6.30;;;2.80;;
69463;SDS011;56665;41.106;16.688;2023-04-06T13:12:08;6.72;;;3.10;;
69463;SDS011;56665;41.106;16.688;2023-04-06T13:15:14;11.55;;;3.47;;
69463;SDS011;56665;41.106;16.688;2023-04-06T13:18:19;9.98;;;3.63;;
69463;SDS011;56665;41.106;16.688;2023-04-06T13:21:24;6.43;;;3.00;;
69463;SDS011;56665;41.106;16.688;2023-04-06T13:24:27;9.00;;;2.83;;
69463;SDS011;56665;41.106;16.688;2023-04-06T13:27:31;8.75;;;2.92;;
69463;SDS011;56665;41.106;16.688;2023-04-06T13:30:37;6.40;;;2.75;;
69463;SDS011;56665;41.106;16.688;2023-04-06T13:33:40;7.68;;;3.15;;
69463;SDS011;56665;41.106;16.688;2023-04-06T13:36:45;7.53;;;3.30;;
69463;SDS011;56665;41.106;16.688;2023-04-06T13:39:48;8.00;;;3.10;;
69463;SDS011;56665;41.106;16.688;2023-04-06T13:42:52;7.28;;;3.28;;
69463;SDS011;56665;41.106;16.688;2023-04-06T13:45:57;7.90;;;3.80;;
69463;SDS011;56665;41.106;16.688;2023-04-06T13:49:02;5.32;;;2.55;;
69463;SDS011;56665;41.106;16.688;2023-04-06T13:52:06;6.30;;;3.40;;
69463;SDS011;56665;41.106;16.688;2023-04-06T13:55:10;9.68;;;3.28;;
69463;SDS011;56665;41.106;16.688;2023-04-06T13:58:14;6.70;;;3.20;;
69463;SDS011;56665;41.106;16.688;2023-04-06T14:01:17;6.05;;;3.47;;
69463;SDS011;56665;41.106;16.688;2023-04-06T14:04:21;9.27;;;3.20;;
69463;SDS011;56665;41.106;16.688;2023-04-06T14:07:25;5.60;;;3.00;;
69463;SDS011;56665;41.106;16.688;2023-04-06T14:10:29;7.22;;;2.92;;
69463;SDS011;56665;41.106;16.688;2023-04-06T14:13:33;8.20;;;3.63;;
69463;SDS011;56665;41.106;16.688;2023-04-06T14:16:37;7.63;;;3.70;;
69463;SDS011;56665;41.106;16.688;2023-04-06T14:19:41;7.22;;;2.90;;
69463;SDS011;56665;41.106;16.688;2023-04-06T14:22:46;5.50;;;3.30;;
69463;SDS011;56665;41.106;16.688;2023-04-06T14:25:49;8.35;;;4.07;;
69463;SDS011;56665;41.106;16.688;2023-04-06T14:28:53;8.73;;;3.78;;
69463;SDS011;56665;41.106;16.688;2023-04-06T14:31:57;5.20;;;2.97;;
69463;SDS011;56665;41.106;16.688;2023-04-06T14:35:04;6.50;;;3.30;;
69463;SDS011;56665;41.106;16.688;2023-04-06T14:38:08;7.25;;;3.42;;
69463;SDS011;56665;41.106;16.688;2023-04-06T14:41:15;5.50;;;3.37;;
69463;SDS011;56665;41.106;16.688;2023-04-06T14:44:20;6.22;;;2.90;;
69463;SDS011;56665;41.106;16.688;2023-04-06T14:47:24;5.53;;;2.83;;
69463;SDS011;56665;41.106;16.688;2023-04-06T14:50:28;7.25;;;3.25;;
69463;SDS011;56665;41.106;16.688;2023-04-06T14:53:32;6.10;;;2.92;;
69463;SDS011;56665;41.106;16.688;2023-04-06T14:56:36;6.27;;;3.80;;
69463;SDS011;56665;41.106;16.688;2023-04-06T14:59:41;8.45;;;4.00;;
69463;SDS011;56665;41.106;16.688;2023-04-06T15:02:45;6.28;;;3.05;;
69463;SDS011;56665;41.106;16.688;2023-04-06T15:05:49;5.57;;;3.22;;
69463;SDS011;56665;41.106;16.688;2023-04-06T15:08:53;5.38;;;3.25;;
69463;SDS011;56665;41.106;16.688;2023-04-06T15:11:57;6.57;;;3.90;;
69463;SDS011;56665;41.106;16.688;2023-04-06T15:15:01;6.25;;;3.28;;
69463;SDS011;56665;41.106;16.688;2023-04-06T15:18:06;5.03;;;3.30;;
69463;SDS011;56665;41.106;16.688;2023-04-06T15:21:10;6.95;;;3.80;;
69463;SDS011;56665;41.106;16.688;2023-04-06T15:24:13;6.72;;;3.70;;
69463;SDS011;56665;41.106;16.688;2023-04-06T15:27:17;6.60;;;3.30;;
69463;SDS011;56665;41.106;16.688;2023-04-06T15:30:22;5.53;;;3.50;;
69463;SDS011;56665;41.106;16.688;2023-04-06T15:33:26;6.22;;;3.50;;
69463;SDS011;56665;41.106;16.688;2023-04-06T15:36:30;7.13;;;3.78;;
69463;SDS011;56665;41.106;16.688;2023-04-06T15:39:34;8.57;;;4.13;;
69463;SDS011;56665;41.106;16.688;2023-04-06T15:42:39;8.80;;;3.93;;
69463;SDS011;56665;41.106;16.688;2023-04-06T15:45:43;7.68;;;3.60;;
69463;SDS011;56665;41.106;16.688;2023-04-06T15:48:48;7.57;;;3.60;;
69463;SDS011;56665;41.106;16.688;2023-04-06T15:51:51;8.95;;;4.25;;
69463;SDS011;56665;41.106;16.688;2023-04-06T15:54:55;13.57;;;5.50;;
69463;SDS011;56665;41.106;16.688;2023-04-06T15:57:59;13.27;;;6.43;;
69463;SDS011;56665;41.106;16.688;2023-04-06T16:01:10;10.90;;;6.07;;
69463;SDS011;56665;41.106;16.688;2023-04-06T16:04:16;12.13;;;5.57;;
69463;SDS011;56665;41.106;16.688;2023-04-06T16:07:20;8.45;;;4.47;;
69463;SDS011;56665;41.106;16.688;2023-04-06T16:10:24;7.70;;;3.95;;
69463;SDS011;56665;41.106;16.688;2023-04-06T16:13:27;7.83;;;3.23;;
69463;SDS011;56665;41.106;16.688;2023-04-06T16:16:33;6.72;;;3.13;;
69463;SDS011;56665;41.106;16.688;2023-04-06T16:19:37;6.88;;;3.38;;
69463;SDS011;56665;41.106;16.688;2023-04-06T16:22:41;7.32;;;2.85;;
69463;SDS011;56665;41.106;16.688;2023-04-06T16:25:44;6.50;;;3.47;;
69463;SDS011;56665;41.106;16.688;2023-04-06T16:28:48;7.20;;;3.40;;
69463;SDS011;56665;41.106;16.688;2023-04-06T16:31:54;6.43;;;3.67;;
69463;SDS011;56665;41.106;16.688;2023-04-06T16:34:58;7.68;;;3.35;;
69463;SDS011;56665;41.106;16.688;2023-04-06T16:38:03;6.28;;;2.90;;
69463;SDS011;56665;41.106;16.688;2023-04-06T16:41:07;5.63;;;3.40;;
69463;SDS011;56665;41.106;16.688;2023-04-06T16:44:11;6.77;;;2.93;;
69463;SDS011;56665;41.106;16.688;2023-04-06T16:47:15;5.85;;;3.28;;
69463;SDS011;56665;41.106;16.688;2023-04-06T16:50:19;7.10;;;2.70;;
69463;SDS011;56665;41.106;16.688;2023-04-06T16:53:24;7.40;;;3.42;;
69463;SDS011;56665;41.106;16.688;2023-04-06T16:56:28;5.68;;;3.80;;
69463;SDS011;56665;41.106;16.688;2023-04-06T16:59:33;6.30;;;3.10;;
69463;SDS011;56665;41.106;16.688;2023-04-06T17:02:38;6.25;;;3.05;;
69463;SDS011;56665;41.106;16.688;2023-04-06T17:05:43;6.57;;;3.22;;
69463;SDS011;56665;41.106;16.688;2023-04-06T17:08:48;6.68;;;3.50;;
69463;SDS011;56665;41.106;16.688;2023-04-06T17:11:53;9.07;;;3.50;;
69463;SDS011;56665;41.106;16.688;2023-04-06T17:14:57;8.00;;;3.23;;
69463;SDS011;56665;41.106;16.688;2023-04-06T17:18:01;4.72;;;3.33;;
69463;SDS011;56665;41.106;16.688;2023-04-06T17:21:05;6.88;;;2.97;;
69463;SDS011;56665;41.106;16.688;2023-04-06T17:24:12;6.88;;;3.17;;
69463;SDS011;56665;41.106;16.688;2023-04-06T17:27:17;10.02;;;3.83;;
69463;SDS011;56665;41.106;16.688;2023-04-06T17:30:21;7.03;;;3.53;;
69463;SDS011;56665;41.106;16.688;2023-04-06T17:33:25;7.18;;;3.10;;
69463;SDS011;56665;41.106;16.688;2023-04-06T17:36:29;5.18;;;3.33;;
69463;SDS011;56665;41.106;16.688;2023-04-06T17:39:34;7.57;;;3.50;;
69463;SDS011;56665;41.106;16.688;2023-04-06T17:42:39;8.05;;;4.22;;
69463;SDS011;56665;41.106;16.688;2023-04-06T17:45:47;8.50;;;4.67;;
69463;SDS011;56665;41.106;16.688;2023-04-06T17:48:53;12.93;;;5.90;;
69463;SDS011;56665;41.106;16.688;2023-04-06T17:51:57;12.48;;;6.93;;
69463;SDS011;56665;41.106;16.688;2023-04-06T17:55:01;16.52;;;8.18;;
69463;SDS011;56665;41.106;16.688;2023-04-06T17:58:06;11.98;;;6.63;;
69463;SDS011;56665;41.106;16.688;2023-04-06T18:01:09;18.30;;;9.87;;
69463;SDS011;56665;41.106;16.688;2023-04-06T18:04:14;23.02;;;13.00;;
69463;SDS011;56665;41.106;16.688;2023-04-06T18:07:18;16.55;;;9.13;;
69463;SDS011;56665;41.106;16.688;2023-04-06T18:10:22;16.00;;;9.30;;
69463;SDS011;56665;41.106;16.688;2023-04-06T18:13:26;11.05;;;6.20;;
69463;SDS011;56665;41.106;16.688;2023-04-06T18:16:30;13.47;;;6.57;;
69463;SDS011;56665;41.106;16.688;2023-04-06T18:19:36;9.80;;;5.15;;
69463;SDS011;56665;41.106;16.688;2023-04-06T18:22:39;14.60;;;5.63;;